York Springs, Pennsylvania
Current Conditions -  °F | °C
As of 6:53 PM on Friday 19 Dec 2014 (Local Time) from KTHV Reporting Station
Clear Clear  
Wind Chill: 25°   Ceiling: Unl
Heat Index: 32°   Visibility: 10mi
Dew Point: 21°   Wind: 8mph
Humidity: 64%   Direction: 320°NW
Pressure: 30.17"   Gusts: NA
Location:  40.01°N, 77.12°W
Report Text: KTHV 192353Z AUTO 32007KT 10SM CLR 00/M06 A3017 RMK AO2 SLP224 T00001061 10050 21006 51014
Loading
Personal Weather Stations






























Interactive Weather Map New forecast layout! Learn more

10-Day Weather Forecast

Advertisements
Track Severe Weather on mobile